Time;durP1;ratioP1;P1;durP2;ratioP2;P2;SDS_P1;SDS_P2;PMS_P1;PMS_P2;Temp;Humidity;BMP_temperature;BMP_pressure;BME280_temperature;BME280_humidity;BME280_pressure;Samples;Min_cycle;Max_cycle;Signal;HPM_P1;HPM_P2
2021/05/30 00:01:57;;;;;;;3.50;2.70;;;10.00;91.40;;;;;;6256467;28;20026;-76
2021/05/30 00:04:58;;;;;;;3.65;3.25;;;10.00;91.60;;;;;;6256342;28;20037;-75
2021/05/30 00:08:00;;;;;;;5.43;3.20;;;9.90;91.70;;;;;;6256261;28;20120;-75
2021/05/30 00:11:03;;;;;;;5.10;3.40;;;9.90;91.90;;;;;;6255454;28;20080;-75
2021/05/30 00:14:04;;;;;;;4.40;3.35;;;9.80;91.70;;;;;;6255118;28;20066;-74
2021/05/30 00:17:06;;;;;;;4.80;3.63;;;9.80;91.80;;;;;;6254307;28;20038;-75
2021/05/30 00:20:09;;;;;;;3.60;3.30;;;9.70;91.90;;;;;;6226917;28;20072;-74
2021/05/30 00:23:10;;;;;;;3.10;2.90;;;9.70;92.00;;;;;;6215721;28;20129;-73
2021/05/30 00:26:12;;;;;;;2.80;2.50;;;9.70;92.20;;;;;;6204901;28;20074;-75
2021/05/30 00:29:14;;;;;;;3.58;3.03;;;9.80;92.30;;;;;;6198810;28;20173;-74
2021/05/30 00:32:15;;;;;;;4.68;3.83;;;9.90;92.10;;;;;;6199342;28;20134;-76
2021/05/30 00:35:16;;;;;;;3.97;3.40;;;9.90;92.10;;;;;;6199451;28;20073;-75
2021/05/30 00:38:18;;;;;;;4.35;2.95;;;10.00;92.10;;;;;;6199440;28;20043;-75
2021/05/30 00:41:20;;;;;;;3.65;3.00;;;10.20;91.80;;;;;;6198845;28;20057;-74
2021/05/30 00:44:24;;;;;;;4.60;3.50;;;10.30;91.70;;;;;;6199005;28;20487;-75
2021/05/30 00:47:25;;;;;;;3.42;3.13;;;10.40;90.90;;;;;;6199017;28;20088;-75
2021/05/30 00:50:26;;;;;;;4.85;2.88;;;10.60;90.70;;;;;;6199348;28;20112;-75
2021/05/30 00:53:28;;;;;;;3.10;2.80;;;10.60;90.40;;;;;;6198630;28;20504;-75
2021/05/30 00:56:30;;;;;;;5.63;3.85;;;10.60;90.10;;;;;;6197338;28;20475;-75
2021/05/30 00:59:32;;;;;;;3.33;3.13;;;10.70;89.90;;;;;;6198222;28;20144;-75
2021/05/30 01:02:33;;;;;;;5.82;3.67;;;10.70;89.50;;;;;;6198832;28;20082;-75
2021/05/30 01:05:34;;;;;;;4.95;3.50;;;10.70;89.10;;;;;;6198335;28;20192;-75
2021/05/30 01:08:36;;;;;;;4.00;3.22;;;10.80;88.90;;;;;;6198121;28;20053;-74
2021/05/30 01:11:38;;;;;;;3.42;2.38;;;10.80;88.70;;;;;;6197719;28;20042;-75
2021/05/30 01:14:40;;;;;;;3.10;2.83;;;10.80;88.80;;;;;;6198735;28;20086;-75
2021/05/30 01:17:42;;;;;;;3.50;3.17;;;10.80;89.60;;;;;;6197968;28;20076;-74
2021/05/30 01:20:43;;;;;;;5.40;3.38;;;10.80;89.40;;;;;;6197595;28;20125;-75
2021/05/30 01:23:49;;;;;;;3.75;3.13;;;10.70;89.10;;;;;;6199237;28;20046;-75
2021/05/30 01:26:50;;;;;;;3.28;2.97;;;10.70;89.00;;;;;;6213805;28;20064;-75
2021/05/30 01:29:52;;;;;;;3.10;2.80;;;10.70;88.90;;;;;;6221860;28;20049;-74
2021/05/30 01:32:53;;;;;;;3.50;2.95;;;10.70;88.80;;;;;;6222015;28;20523;-75
2021/05/30 01:35:55;;;;;;;3.78;2.83;;;10.70;89.00;;;;;;6222116;28;20132;-75
2021/05/30 01:38:57;;;;;;;3.78;3.13;;;10.60;89.50;;;;;;6221777;28;20133;-74
2021/05/30 01:41:58;;;;;;;4.85;2.97;;;10.50;90.00;;;;;;6222364;28;20077;-75
2021/05/30 01:45:00;;;;;;;3.17;2.97;;;10.40;90.60;;;;;;6222284;28;20435;-75
2021/05/30 01:48:02;;;;;;;3.30;3.00;;;10.30;90.50;;;;;;6221975;28;20141;-75
2021/05/30 01:51:03;;;;;;;4.35;3.50;;;10.20;90.70;;;;;;6221712;28;20081;-75
2021/05/30 01:54:08;;;;;;;3.65;3.33;;;10.10;91.10;;;;;;6222065;28;20496;-75
2021/05/30 01:57:10;;;;;;;2.53;2.33;;;9.90;91.30;;;;;;6221905;28;20527;-75
2021/05/30 02:00:12;;;;;;;3.97;3.58;;;9.90;91.50;;;;;;6221478;28;20530;-75
2021/05/30 02:03:14;;;;;;;3.65;3.33;;;9.80;91.50;;;;;;6222020;28;20556;-75
2021/05/30 02:06:18;;;;;;;3.38;3.08;;;9.80;91.60;;;;;;6223007;28;20133;-75
2021/05/30 02:09:20;;;;;;;5.53;3.55;;;9.80;91.70;;;;;;6221663;28;20081;-75
2021/05/30 02:12:22;;;;;;;4.05;3.58;;;9.70;91.70;;;;;;6221926;28;20415;-75
2021/05/30 02:15:24;;;;;;;4.53;3.67;;;9.70;91.80;;;;;;6221741;28;20096;-75
2021/05/30 02:18:25;;;;;;;3.47;3.17;;;9.70;91.90;;;;;;6221974;28;20135;-75
2021/05/30 02:21:37;;;;;;;7.53;3.40;;;9.60;92.00;;;;;;6223388;28;20567;-75
2021/05/30 02:24:42;;;;;;;3.97;3.50;;;9.50;92.20;;;;;;6226497;28;20115;-75
2021/05/30 02:27:44;;;;;;;4.10;3.70;;;9.50;92.50;;;;;;6226057;28;20418;-75
2021/05/30 02:30:45;;;;;;;5.65;3.33;;;9.40;92.50;;;;;;6226132;28;20450;-75
2021/05/30 02:33:46;;;;;;;3.67;3.03;;;9.30;92.70;;;;;;6225732;28;20049;-75
2021/05/30 02:36:48;;;;;;;3.95;3.58;;;9.20;92.80;;;;;;6226151;28;20125;-74
2021/05/30 02:39:50;;;;;;;3.47;3.15;;;9.20;93.00;;;;;;6225642;28;20042;-75
2021/05/30 02:42:51;;;;;;;6.25;3.47;;;9.10;93.10;;;;;;6226872;28;20133;-75
2021/05/30 02:45:52;;;;;;;4.45;3.40;;;9.10;93.30;;;;;;6226011;28;20132;-75
2021/05/30 02:48:54;;;;;;;3.88;3.47;;;9.10;93.40;;;;;;6225436;28;20045;-75
2021/05/30 02:51:55;;;;;;;10.00;3.95;;;9.10;93.30;;;;;;6225922;28;20524;-75
2021/05/30 02:54:57;;;;;;;11.88;3.80;;;9.10;93.10;;;;;;6225941;28;20137;-74
2021/05/30 02:57:59;;;;;;;4.07;3.67;;;9.20;93.00;;;;;;6226036;28;20405;-74
2021/05/30 03:01:00;;;;;;;3.47;3.17;;;9.20;93.00;;;;;;6225420;28;20081;-75
2021/05/30 03:04:01;;;;;;;5.38;3.50;;;9.20;92.80;;;;;;6226143;28;20085;-74
2021/05/30 03:07:03;;;;;;;3.60;3.20;;;9.30;92.60;;;;;;6226321;28;20132;-75
2021/05/30 03:10:07;;;;;;;4.78;3.40;;;9.40;92.60;;;;;;6227755;28;20141;-75
2021/05/30 03:13:08;;;;;;;5.75;3.55;;;9.50;92.40;;;;;;6227188;28;20046;-74
2021/05/30 03:16:10;;;;;;;4.47;3.72;;;9.40;92.20;;;;;;6227242;28;20585;-75
2021/05/30 03:19:11;;;;;;;4.18;3.78;;;9.50;92.30;;;;;;6228639;28;20054;-74
2021/05/30 03:22:12;;;;;;;4.00;3.60;;;9.60;92.30;;;;;;6225419;28;20085;-75
2021/05/30 03:25:15;;;;;;;3.80;3.28;;;9.60;92.00;;;;;;6224982;28;20045;-75
2021/05/30 03:28:16;;;;;;;6.05;3.90;;;9.60;92.00;;;;;;6225136;28;20070;-74
2021/05/30 03:31:18;;;;;;;3.95;3.60;;;9.70;91.70;;;;;;6224800;28;20082;-75
2021/05/30 03:34:19;;;;;;;3.55;3.10;;;9.70;91.70;;;;;;6220841;28;20088;-75
2021/05/30 03:37:20;;;;;;;6.88;4.20;;;9.70;91.60;;;;;;6208983;28;20516;-75
2021/05/30 03:40:28;;;;;;;5.25;4.57;;;9.70;91.50;;;;;;6200027;28;20046;-75
2021/05/30 03:43:30;;;;;;;4.38;3.97;;;9.80;91.50;;;;;;6224189;28;20046;-75
2021/05/30 03:46:32;;;;;;;3.88;3.50;;;9.70;91.60;;;;;;6224673;28;20575;-76
2021/05/30 03:49:33;;;;;;;4.32;3.92;;;9.80;91.60;;;;;;6224166;28;20046;-75
2021/05/30 03:52:34;;;;;;;6.20;4.03;;;9.80;91.60;;;;;;6224105;28;20049;-75
2021/05/30 03:55:36;;;;;;;4.80;3.97;;;9.80;91.70;;;;;;6223426;28;20180;-74
2021/05/30 03:58:38;;;;;;;3.90;3.50;;;9.80;91.70;;;;;;6224138;28;20572;-75
2021/05/30 04:01:39;;;;;;;4.60;3.95;;;9.90;91.50;;;;;;6223539;28;20054;-75
2021/05/30 04:04:40;;;;;;;8.88;3.55;;;9.90;91.60;;;;;;6224164;28;20049;-75
2021/05/30 04:07:43;;;;;;;4.60;4.03;;;10.00;91.60;;;;;;6223814;28;20129;-74
2021/05/30 04:10:45;;;;;;;3.65;3.33;;;10.00;91.60;;;;;;6224499;28;20137;-74
2021/05/30 04:13:46;;;;;;;4.47;3.72;;;10.10;91.40;;;;;;6223258;28;20054;-75
2021/05/30 04:16:48;;;;;;;5.63;3.20;;;10.20;91.10;;;;;;6223807;28;20062;-76
2021/05/30 04:19:49;;;;;;;3.78;3.30;;;10.30;91.00;;;;;;6223049;28;20453;-75
2021/05/30 04:22:50;;;;;;;4.30;3.90;;;10.50;91.00;;;;;;6223869;28;20142;-75
2021/05/30 04:25:52;;;;;;;3.20;2.58;;;10.60;90.60;;;;;;6223456;28;20073;-75
2021/05/30 04:28:54;;;;;;;4.53;3.03;;;10.70;90.30;;;;;;6223148;28;20050;-75
2021/05/30 04:31:55;;;;;;;5.15;4.53;;;10.90;90.10;;;;;;6215324;28;20074;-75
2021/05/30 04:34:56;;;;;;;5.28;3.42;;;11.00;89.80;;;;;;6222916;28;20157;-75
2021/05/30 04:37:58;;;;;;;5.47;3.38;;;11.20;88.70;;;;;;6217638;28;20096;-75
2021/05/30 04:41:00;;;;;;;4.47;3.45;;;11.30;88.00;;;;;;6198350;28;20070;-75
2021/05/30 04:44:02;;;;;;;4.43;3.17;;;11.30;87.50;;;;;;6200268;28;20057;-76
2021/05/30 04:47:03;;;;;;;4.25;3.58;;;11.40;87.30;;;;;;6223219;28;20129;-76
2021/05/30 04:50:06;;;;;;;5.93;3.50;;;11.40;86.80;;;;;;6223435;28;20128;-76
2021/05/30 04:53:07;;;;;;;3.33;3.03;;;11.40;86.80;;;;;;6222874;28;20188;-76
2021/05/30 04:56:11;;;;;;;4.63;4.00;;;11.60;86.80;;;;;;6223135;28;20088;-76
2021/05/30 04:59:12;;;;;;;3.15;2.85;;;11.80;85.80;;;;;;6222872;28;20140;-76
2021/05/30 05:02:13;;;;;;;5.10;3.05;;;11.90;85.30;;;;;;6223266;28;20078;-76
2021/05/30 05:05:15;;;;;;;7.03;3.88;;;12.00;84.40;;;;;;6223151;28;20133;-76
2021/05/30 05:08:16;;;;;;;4.28;3.08;;;12.20;83.80;;;;;;6222630;28;20092;-77
2021/05/30 05:11:18;;;;;;;7.45;3.65;;;12.30;83.10;;;;;;6222316;28;20091;-76
2021/05/30 05:14:19;;;;;;;5.72;2.88;;;12.30;82.90;;;;;;6222842;28;20046;-76
2021/05/30 05:17:21;;;;;;;4.30;3.45;;;12.40;82.10;;;;;;6222252;28;20518;-76
2021/05/30 05:20:22;;;;;;;4.68;3.08;;;12.50;81.70;;;;;;6222176;28;20125;-76
2021/05/30 05:23:25;;;;;;;3.90;2.90;;;12.60;81.10;;;;;;6222881;28;20153;-76
2021/05/30 05:26:27;;;;;;;6.22;3.33;;;12.70;80.80;;;;;;6222857;28;20056;-76
2021/05/30 05:29:28;;;;;;;4.78;3.92;;;12.70;80.50;;;;;;6222131;28;20069;-76
2021/05/30 05:32:30;;;;;;;3.28;2.92;;;12.90;79.70;;;;;;6222423;28;20046;-76
2021/05/30 05:35:31;;;;;;;3.97;3.42;;;12.80;79.10;;;;;;6221746;28;20079;-76
2021/05/30 05:38:32;;;;;;;3.65;3.17;;;12.90;79.00;;;;;;6214539;28;20048;-76
2021/05/30 05:41:34;;;;;;;5.20;4.70;;;12.90;79.10;;;;;;6221206;28;20639;-76
2021/05/30 05:44:36;;;;;;;6.85;3.88;;;13.00;78.60;;;;;;6222220;28;20132;-75
2021/05/30 05:47:37;;;;;;;5.32;4.03;;;13.10;78.10;;;;;;6222094;28;20042;-76
2021/05/30 05:50:40;;;;;;;3.60;3.28;;;13.20;78.30;;;;;;6222132;28;20140;-76
2021/05/30 05:53:41;;;;;;;4.25;3.40;;;13.30;77.00;;;;;;6221778;28;20049;-76
2021/05/30 05:56:43;;;;;;;8.23;3.53;;;13.40;77.00;;;;;;6224136;28;20113;-76
2021/05/30 05:59:44;;;;;;;6.50;3.72;;;13.80;75.90;;;;;;6227220;28;20504;-76
2021/05/30 06:02:49;;;;;;;3.63;3.03;;;14.50;73.50;;;;;;6226966;28;20148;-76
2021/05/30 06:05:50;;;;;;;7.38;5.13;;;15.10;70.40;;;;;;6212499;28;20053;-76
2021/05/30 06:08:51;;;;;;;4.32;3.10;;;15.70;69.10;;;;;;6209056;28;20428;-76
2021/05/30 06:11:54;;;;;;;4.63;3.72;;;16.10;66.70;;;;;;6226586;28;20136;-76
2021/05/30 06:14:55;;;;;;;4.07;3.10;;;16.30;65.70;;;;;;6208419;28;20139;-76
2021/05/30 06:17:59;;;;;;;2.92;2.60;;;16.70;65.30;;;;;;6203207;28;20086;-76
2021/05/30 06:21:00;;;;;;;6.88;4.82;;;16.90;63.10;;;;;;6201877;28;20076;-76
2021/05/30 06:24:02;;;;;;;4.15;3.75;;;17.20;63.40;;;;;;6225290;28;20054;-76
2021/05/30 06:27:05;;;;;;;4.93;2.90;;;17.50;61.20;;;;;;6226378;28;20054;-76
2021/05/30 06:30:08;;;;;;;4.07;3.67;;;17.60;61.10;;;;;;6226375;28;20077;-76
2021/05/30 06:33:10;;;;;;;4.00;3.53;;;17.80;60.60;;;;;;6225755;28;20049;-76
2021/05/30 06:36:12;;;;;;;5.03;3.60;;;18.00;60.40;;;;;;6226414;28;20073;-76
2021/05/30 06:39:14;;;;;;;3.35;2.92;;;18.30;59.00;;;;;;6224223;28;20038;-76
2021/05/30 06:42:16;;;;;;;3.85;3.35;;;18.20;58.00;;;;;;6223105;28;20081;-76
2021/05/30 06:45:17;;;;;;;3.75;3.17;;;18.20;58.90;;;;;;6225748;28;20104;-76
2021/05/30 06:48:20;;;;;;;3.20;2.72;;;18.20;58.00;;;;;;6225727;28;20132;-76
2021/05/30 06:51:22;;;;;;;3.97;3.17;;;18.10;59.00;;;;;;6225286;28;20381;-76
2021/05/30 06:54:24;;;;;;;4.10;2.85;;;18.10;59.00;;;;;;6225881;28;20100;-76
2021/05/30 06:57:26;;;;;;;4.00;2.95;;;17.90;59.40;;;;;;6225439;28;20046;-76
2021/05/30 07:00:27;;;;;;;4.07;3.00;;;17.60;60.60;;;;;;6225117;28;20623;-76
2021/05/30 07:03:29;;;;;;;3.92;3.50;;;17.50;59.60;;;;;;6225225;28;20064;-76
2021/05/30 07:06:30;;;;;;;4.63;3.40;;;17.60;59.10;;;;;;6225395;28;20141;-76
2021/05/30 07:09:32;;;;;;;3.15;2.85;;;17.40;59.60;;;;;;6224066;28;20080;-76
2021/05/30 07:12:34;;;;;;;4.97;3.70;;;17.40;59.50;;;;;;6225306;28;20175;-75
2021/05/30 07:15:35;;;;;;;5.18;2.88;;;17.60;59.00;;;;;;6225025;28;20048;-76
2021/05/30 07:18:37;;;;;;;5.68;3.63;;;17.90;58.00;;;;;;6225253;28;20050;-76
2021/05/30 07:21:38;;;;;;;5.25;3.20;;;18.30;57.30;;;;;;6224752;28;20566;-76
2021/05/30 07:24:39;;;;;;;3.80;3.15;;;18.60;56.10;;;;;;6226352;28;20427;-76
2021/05/30 07:27:42;;;;;;;7.43;2.67;;;19.10;54.70;;;;;;6224633;28;20073;-76
2021/05/30 07:30:43;;;;;;;3.28;2.80;;;19.10;54.60;;;;;;6224902;28;20492;-76
2021/05/30 07:33:45;;;;;;;3.10;2.75;;;19.10;53.80;;;;;;6224403;28;20069;-76
2021/05/30 07:36:47;;;;;;;2.90;2.65;;;19.20;54.00;;;;;;6225091;28;20078;-76
2021/05/30 07:39:48;;;;;;;4.28;3.45;;;19.60;52.40;;;;;;6222529;28;20173;-76
2021/05/30 07:42:50;;;;;;;3.83;3.22;;;19.70;52.80;;;;;;6221603;28;20096;-76
2021/05/30 07:45:52;;;;;;;3.47;2.67;;;19.90;50.60;;;;;;6224193;28;20136;-76
2021/05/30 07:48:53;;;;;;;3.83;2.83;;;20.00;50.10;;;;;;6224156;28;20686;-78
2021/05/30 07:51:54;;;;;;;3.05;2.33;;;20.20;50.20;;;;;;6224671;28;20469;-76
2021/05/30 07:54:56;;;;;;;4.40;3.30;;;20.20;48.80;;;;;;6224081;28;20045;-76
2021/05/30 07:57:58;;;;;;;5.90;2.40;;;20.10;49.20;;;;;;6224177;28;20551;-76
2021/05/30 08:00:59;;;;;;;3.50;2.83;;;20.30;49.30;;;;;;6223579;28;20046;-77
2021/05/30 08:04:01;;;;;;;2.28;1.92;;;20.50;49.60;;;;;;6224063;28;20093;-76
2021/05/30 08:07:03;;;;;;;3.50;2.05;;;21.00;47.30;;;;;;6223357;28;20137;-76
2021/05/30 08:10:06;;;;;;;2.05;1.83;;;20.80;45.60;;;;;;6224393;28;20049;-76
2021/05/30 08:13:08;;;;;;;3.92;2.45;;;20.90;46.40;;;;;;6223493;28;20575;-76
2021/05/30 08:16:10;;;;;;;3.25;1.98;;;21.40;45.10;;;;;;6224029;28;20077;-76
2021/05/30 08:19:12;;;;;;;2.08;1.88;;;21.70;44.20;;;;;;6222825;28;20042;-76
2021/05/30 08:22:13;;;;;;;3.63;2.13;;;21.80;44.60;;;;;;6223854;28;20046;-76
2021/05/30 08:25:16;;;;;;;2.45;2.10;;;22.00;44.30;;;;;;6223874;28;20512;-76
2021/05/30 08:28:18;;;;;;;2.60;2.40;;;22.10;44.60;;;;;;6223206;28;20755;-77
2021/05/30 08:31:20;;;;;;;4.22;2.60;;;22.30;44.70;;;;;;6223565;28;20115;-76
2021/05/30 08:34:21;;;;;;;3.28;2.15;;;22.60;43.90;;;;;;6223592;28;20053;-76
2021/05/30 08:37:23;;;;;;;2.95;2.22;;;23.10;43.80;;;;;;6223597;28;20121;-77
2021/05/30 08:40:24;;;;;;;5.65;3.67;;;23.80;41.80;;;;;;6220035;28;20065;-77
2021/05/30 08:43:27;;;;;;;4.88;2.33;;;23.80;41.70;;;;;;6214638;28;20042;-76
2021/05/30 08:46:29;;;;;;;3.40;2.58;;;24.20;41.40;;;;;;6224175;28;20533;-76
2021/05/30 08:49:30;;;;;;;4.22;2.63;;;25.20;39.20;;;;;;6222936;28;20177;-76
2021/05/30 08:52:33;;;;;;;1.95;1.83;;;25.60;39.40;;;;;;6223031;28;20469;-77
2021/05/30 08:55:36;;;;;;;3.92;2.22;;;26.00;38.80;;;;;;6223397;28;20125;-76
2021/05/30 08:58:41;;;;;;;5.32;2.50;;;26.20;37.60;;;;;;6223546;28;20148;-76
2021/05/30 09:01:44;;;;;;;2.95;2.35;;;26.20;37.30;;;;;;6223064;28;20056;-76
2021/05/30 09:04:51;;;;;;;4.70;3.30;;;25.70;38.50;;;;;;6223116;28;20451;-76
2021/05/30 09:07:52;;;;;;;3.47;2.55;;;26.20;38.00;;;;;;6222630;28;20053;-76
2021/05/30 09:10:54;;;;;;;2.95;2.30;;;26.60;37.40;;;;;;6222915;28;20054;-77
2021/05/30 09:14:00;;;;;;;3.35;2.70;;;26.90;37.50;;;;;;6222384;28;20045;-76
2021/05/30 09:17:03;;;;;;;2.60;2.40;;;27.30;36.70;;;;;;6222313;28;20100;-77
2021/05/30 09:20:06;;;;;;;2.75;2.03;;;27.20;35.60;;;;;;6222322;28;20089;-78
2021/05/30 09:23:28;;;;;;;3.17;2.67;;;27.10;36.10;;;;;;6222622;28;20579;-74
2021/05/30 09:26:29;;;;;;;2.95;2.53;;;26.10;36.80;;;;;;6222618;28;20061;-74
2021/05/30 09:29:32;;;;;;;5.30;2.83;;;25.60;37.60;;;;;;6221781;28;20073;-74
2021/05/30 09:32:52;;;;;;;3.53;1.92;;;25.40;38.10;;;;;;6221361;28;20045;-77
2021/05/30 09:35:59;;;;;;;2.05;1.77;;;26.00;35.60;;;;;;6221979;28;20518;-74
2021/05/30 09:39:05;;;;;;;2.97;2.37;;;26.20;34.20;;;;;;6221705;28;20053;-74
2021/05/30 09:42:21;;;;;;;3.63;2.55;;;25.90;35.10;;;;;;6218768;28;20054;-74
2021/05/30 09:45:23;;;;;;;4.40;2.55;;;25.70;36.10;;;;;;6200449;28;20137;-77
2021/05/30 09:48:25;;;;;;;3.47;1.40;;;25.60;36.20;;;;;;6197552;28;20054;-77
2021/05/30 09:51:33;;;;;;;3.47;2.35;;;25.70;34.90;;;;;;6197430;28;20069;-74
2021/05/30 09:54:34;;;;;;;3.65;2.33;;;25.80;34.20;;;;;;6198759;28;20050;-77
2021/05/30 09:57:35;;;;;;;3.47;2.13;;;25.50;34.10;;;;;;6198087;28;20096;-76
2021/05/30 10:00:38;;;;;;;2.10;1.88;;;25.10;34.50;;;;;;6198027;28;20074;-76
2021/05/30 10:03:40;;;;;;;2.80;2.60;;;24.90;36.20;;;;;;6197642;28;20046;-76
2021/05/30 10:06:42;;;;;;;2.83;2.10;;;25.60;36.30;;;;;;6198313;28;20054;-76
2021/05/30 10:09:43;;;;;;;2.80;2.03;;;26.20;34.50;;;;;;6196735;28;20124;-76
2021/05/30 10:12:44;;;;;;;6.95;2.00;;;25.80;33.30;;;;;;6200435;28;20038;-77
2021/05/30 10:15:47;;;;;;;4.15;2.22;;;25.30;34.30;;;;;;6221710;28;20054;-76
2021/05/30 10:18:51;;;;;;;2.65;1.50;;;25.20;34.00;;;;;;6221653;28;20137;-76
2021/05/30 10:21:54;;;;;;;2.50;1.90;;;25.20;32.70;;;;;;6221473;28;20046;-76
2021/05/30 10:24:56;;;;;;;4.50;1.85;;;24.70;33.80;;;;;;6221451;28;20530;-77
2021/05/30 10:28:14;;;;;;;1.90;1.60;;;24.10;34.30;;;;;;6218835;28;20412;-76
2021/05/30 10:31:25;;;;;;;1.73;1.38;;;23.70;35.60;;;;;;6207700;28;20580;-76
2021/05/30 10:34:26;;;;;;;3.75;1.85;;;23.70;34.80;;;;;;6203148;28;20493;-77
2021/05/30 10:37:27;;;;;;;1.60;1.50;;;23.50;33.90;;;;;;6206750;28;20042;-76
2021/05/30 10:40:35;;;;;;;3.13;2.20;;;23.40;33.70;;;;;;6207696;28;20463;-75
2021/05/30 10:43:36;;;;;;;3.13;2.33;;;23.80;34.80;;;;;;6219004;28;20068;-76
2021/05/30 10:46:50;;;;;;;2.05;1.85;;;23.70;35.90;;;;;;6215305;28;20138;-76
2021/05/30 10:50:08;;;;;;;3.00;1.70;;;23.40;35.70;;;;;;6213472;28;20046;-76
2021/05/30 10:53:39;;;;;;;2.58;1.80;;;23.00;34.80;;;;;;6220510;28;20393;-77
2021/05/30 10:56:46;;;;;;;2.17;1.70;;;22.60;36.20;;;;;;6225852;28;20460;-75
2021/05/30 10:59:48;;;;;;;3.33;2.53;;;;;;;;;;6225404;28;20050;-76
2021/05/30 11:03:06;;;;;;;2.80;1.80;;;22.70;34.20;;;;;;6226661;28;20054;-77
2021/05/30 11:06:08;;;;;;;2.47;1.35;;;22.80;34.20;;;;;;6226028;28;20046;-76
2021/05/30 11:09:09;;;;;;;5.03;1.90;;;22.70;35.10;;;;;;6225020;28;20078;-76
2021/05/30 11:12:21;;;;;;;7.90;2.15;;;22.70;34.40;;;;;;6225565;28;20045;-76
2021/05/30 11:15:33;;;;;;;3.63;2.10;;;22.40;35.60;;;;;;6225472;28;20072;-76
2021/05/30 11:18:36;;;;;;;1.88;1.38;;;22.50;34.90;;;;;;6225836;28;20086;-75
2021/05/30 11:21:41;;;;;;;2.60;1.75;;;22.90;35.60;;;;;;6226253;28;20080;-77
2021/05/30 11:24:43;;;;;;;1.42;1.33;;;23.50;34.00;;;;;;6226724;28;20112;-76
2021/05/30 11:27:53;;;;;;;2.70;2.50;;;23.50;33.60;;;;;;6225583;28;20411;-75
2021/05/30 11:30:59;;;;;;;1.85;1.42;;;23.30;33.60;;;;;;6226832;28;20049;-76
2021/05/30 11:34:04;;;;;;;2.75;1.85;;;22.80;31.60;;;;;;6226129;28;20060;-76
2021/05/30 11:37:07;;;;;;;1.55;1.45;;;22.30;33.30;;;;;;6226345;28;20044;-75
2021/05/30 11:40:18;;;;;;;2.63;2.05;;;22.20;33.40;;;;;;6225386;28;20046;-76
2021/05/30 11:43:20;;;;;;;4.30;2.33;;;22.30;35.40;;;;;;6222624;28;20549;-76
2021/05/30 11:46:22;;;;;;;2.10;1.90;;;22.50;32.80;;;;;;6222669;28;20096;-76
2021/05/30 11:49:26;;;;;;;1.50;1.40;;;22.40;33.80;;;;;;6223792;28;20192;-76
2021/05/30 11:52:28;;;;;;;2.15;1.65;;;22.50;33.70;;;;;;6224097;28;20073;-76
2021/05/30 11:55:29;;;;;;;2.58;2.08;;;22.50;35.00;;;;;;6223218;28;20042;-75
2021/05/30 11:58:30;;;;;;;2.08;1.50;;;22.40;34.20;;;;;;6224260;28;20081;-75
2021/05/30 12:01:46;;;;;;;4.38;2.00;;;22.30;34.30;;;;;;6223401;28;20050;-76
2021/05/30 12:04:49;;;;;;;2.05;1.85;;;22.60;32.90;;;;;;6223729;28;20058;-76
2021/05/30 12:07:50;;;;;;;2.17;1.50;;;22.50;33.20;;;;;;6223848;28;20081;-76
2021/05/30 12:10:57;;;;;;;4.03;1.55;;;22.50;33.00;;;;;;6223532;28;20066;-75
2021/05/30 12:14:03;;;;;;;1.92;1.50;;;22.40;33.40;;;;;;6223780;28;20116;-76
2021/05/30 12:17:10;;;;;;;4.30;1.55;;;22.30;34.00;;;;;;6223372;28;20057;-76
2021/05/30 12:20:23;;;;;;;4.27;2.00;;;22.50;33.30;;;;;;6223156;28;20046;-75
2021/05/30 12:23:25;;;;;;;4.18;2.10;;;22.70;32.40;;;;;;6223198;28;20285;-75
2021/05/30 12:26:26;;;;;;;3.13;1.40;;;22.60;33.80;;;;;;6223808;28;20085;-76
2021/05/30 12:29:28;;;;;;;5.88;1.90;;;22.40;31.00;;;;;;6222866;28;20474;-76
2021/05/30 12:32:29;;;;;;;4.15;2.60;;;22.40;33.90;;;;;;6223048;28;20050;-76
2021/05/30 12:35:49;;;;;;;3.10;2.08;;;22.70;32.70;;;;;;6222931;28;20044;-75
2021/05/30 12:39:00;;;;;;;2.60;1.73;;;23.10;33.00;;;;;;6223420;28;20125;-76
2021/05/30 12:42:04;;;;;;;1.98;1.50;;;23.10;31.80;;;;;;6222968;28;20129;-75
2021/05/30 12:45:09;;;;;;;1.90;1.52;;;22.80;33.30;;;;;;6219438;28;20046;-75
2021/05/30 12:48:11;;;;;;;2.53;1.40;;;22.70;34.00;;;;;;6219871;28;20045;-75
2021/05/30 12:51:15;;;;;;;1.73;1.63;;;22.60;35.10;;;;;;6222691;28;20069;-76
2021/05/30 12:54:18;;;;;;;2.25;1.60;;;22.80;34.90;;;;;;6223957;28;20054;-75
2021/05/30 12:57:33;;;;;;;1.98;1.60;;;22.90;33.40;;;;;;6222443;28;20526;-76
2021/05/30 13:00:37;;;;;;;1.48;1.38;;;22.80;32.60;;;;;;6222369;28;20096;-76
2021/05/30 13:03:38;;;;;;;2.83;1.63;;;22.70;33.40;;;;;;6222357;28;20096;-76
2021/05/30 13:06:52;;;;;;;2.30;1.95;;;22.60;32.80;;;;;;6222017;28;20481;-74
2021/05/30 13:09:56;;;;;;;7.18;1.90;;;22.40;33.30;;;;;;6222290;28;20556;-75
2021/05/30 13:12:58;;;;;;;2.58;1.60;;;22.40;34.40;;;;;;6222512;28;20068;-76
2021/05/30 13:15:59;;;;;;;1.50;1.40;;;22.50;34.40;;;;;;6222223;28;20125;-76
2021/05/30 13:19:01;;;;;;;2.50;1.35;;;22.50;34.20;;;;;;6221980;28;20482;-75
2021/05/30 13:22:05;;;;;;;2.17;1.85;;;22.50;34.40;;;;;;6222812;28;20140;-75
2021/05/30 13:25:24;;;;;;;1.73;1.48;;;22.50;33.40;;;;;;6199649;28;20046;-75
2021/05/30 13:28:27;;;;;;;2.00;1.55;;;22.40;35.30;;;;;;6197734;28;20125;-73
2021/05/30 13:31:29;;;;;;;3.55;2.33;;;22.30;34.80;;;;;;6197326;28;20568;-76
2021/05/30 13:34:30;;;;;;;1.90;1.45;;;22.20;34.90;;;;;;6197900;28;20078;-76
2021/05/30 13:37:33;;;;;;;3.90;1.50;;;;;;;;;;6197424;28;20056;-74
2021/05/30 13:40:40;;;;;;;2.78;1.35;;;22.50;33.80;;;;;;6197334;28;20124;-76
2021/05/30 13:43:41;;;;;;;3.42;1.73;;;22.60;34.80;;;;;;6197531;28;20092;-76
2021/05/30 13:46:42;;;;;;;2.85;1.50;;;22.60;32.90;;;;;;6208989;28;20057;-76
2021/05/30 13:49:44;;;;;;;1.80;1.70;;;22.50;32.50;;;;;;6221090;28;20042;-75
2021/05/30 13:52:46;;;;;;;4.63;3.35;;;22.40;32.90;;;;;;6222370;28;20070;-75
2021/05/30 13:55:47;;;;;;;3.20;2.35;;;22.30;34.00;;;;;;6222955;28;20049;-75
2021/05/30 13:58:49;;;;;;;2.65;2.00;;;22.20;34.90;;;;;;6221856;28;20132;-76
2021/05/30 14:01:50;;;;;;;10.02;2.42;;;22.30;35.60;;;;;;6221459;28;20508;-76
2021/05/30 14:04:52;;;;;;;2.08;1.70;;;22.50;34.50;;;;;;6221329;28;20070;-74
2021/05/30 14:07:54;;;;;;;2.80;1.85;;;22.50;34.70;;;;;;6221495;28;20069;-75
2021/05/30 14:10:55;;;;;;;3.38;2.08;;;22.70;34.60;;;;;;6221504;28;20092;-76
2021/05/30 14:13:57;;;;;;;2.97;2.25;;;22.80;34.70;;;;;;6209111;28;20133;-75
2021/05/30 14:16:58;;;;;;;2.40;2.20;;;22.80;34.00;;;;;;6198632;28;20052;-76
2021/05/30 14:19:59;;;;;;;2.55;2.00;;;22.60;34.40;;;;;;6201403;28;20520;-75
2021/05/30 14:23:02;;;;;;;2.55;1.48;;;22.60;34.70;;;;;;6202346;28;20177;-76
2021/05/30 14:26:04;;;;;;;3.58;2.40;;;22.50;35.60;;;;;;6202130;28;20496;-76
2021/05/30 14:29:05;;;;;;;3.33;1.85;;;22.70;34.40;;;;;;6201319;28;20419;-75
2021/05/30 14:32:07;;;;;;;2.85;2.20;;;22.70;34.30;;;;;;6201730;28;20069;-76
2021/05/30 14:35:10;;;;;;;2.60;1.83;;;22.70;34.30;;;;;;6201398;28;20094;-75
2021/05/30 14:38:12;;;;;;;4.30;2.50;;;22.70;35.40;;;;;;6202367;28;20126;-76
2021/05/30 14:41:13;;;;;;;5.63;1.88;;;22.60;34.90;;;;;;6200699;28;20076;-74
2021/05/30 14:44:15;;;;;;;2.88;2.33;;;22.40;34.60;;;;;;6201454;28;20129;-75
2021/05/30 14:47:16;;;;;;;3.63;3.33;;;22.30;35.90;;;;;;6211867;28;20070;-76
2021/05/30 14:50:18;;;;;;;2.42;2.22;;;22.40;35.10;;;;;;6225134;28;20058;-76
2021/05/30 14:53:20;;;;;;;3.25;2.05;;;22.40;35.40;;;;;;6225700;28;20135;-76
2021/05/30 14:56:21;;;;;;;2.30;2.10;;;22.50;35.60;;;;;;6225830;28;20053;-76
2021/05/30 14:59:23;;;;;;;2.40;1.98;;;22.30;34.80;;;;;;6225091;28;20508;-76
2021/05/30 15:02:24;;;;;;;4.25;1.77;;;22.20;35.60;;;;;;6225897;28;20060;-76
2021/05/30 15:05:25;;;;;;;3.35;2.30;;;22.10;35.60;;;;;;6225534;28;20129;-76
2021/05/30 15:08:28;;;;;;;2.50;1.80;;;22.00;35.70;;;;;;6225162;28;20065;-75
2021/05/30 15:11:29;;;;;;;2.22;1.77;;;21.80;35.90;;;;;;6224959;28;20096;-75
2021/05/30 15:14:30;;;;;;;2.72;2.45;;;21.80;35.90;;;;;;6225024;28;20050;-76
2021/05/30 15:17:32;;;;;;;2.42;2.20;;;22.00;35.50;;;;;;6225478;28;20128;-75
2021/05/30 15:20:33;;;;;;;2.10;1.85;;;21.90;35.20;;;;;;6225649;28;20045;-75
2021/05/30 15:23:35;;;;;;;3.08;1.77;;;21.90;35.20;;;;;;6224782;28;20076;-75
2021/05/30 15:26:38;;;;;;;2.78;2.58;;;21.90;35.60;;;;;;6225166;28;20085;-76
2021/05/30 15:29:39;;;;;;;3.78;2.10;;;21.90;36.30;;;;;;6223388;28;20066;-76
2021/05/30 15:32:40;;;;;;;3.65;2.13;;;22.00;35.80;;;;;;6224212;28;20534;-75
2021/05/30 15:35:42;;;;;;;4.13;2.03;;;22.00;36.10;;;;;;6224572;28;20125;-75
2021/05/30 15:38:46;;;;;;;2.00;1.80;;;21.90;35.70;;;;;;6224855;28;20140;-76
2021/05/30 15:41:47;;;;;;;2.28;2.08;;;21.90;36.80;;;;;;6224091;28;20050;-75
2021/05/30 15:44:49;;;;;;;3.78;2.55;;;22.00;35.50;;;;;;6224461;28;20046;-76
2021/05/30 15:47:50;;;;;;;5.20;2.20;;;21.90;36.00;;;;;;6220508;28;20134;-76
2021/05/30 15:54:12;;;;;;;4.07;2.55;;;21.90;36.00;;;;;;6223154;28;20046;-76
2021/05/30 15:57:13;;;;;;;3.70;2.40;;;21.90;36.00;;;;;;6224323;28;20183;-76